Ander, Texas
Current Conditions -  °F | °C
As of 4:35 PM on Sunday 23 Nov 2014 (Local Time) from KBEA Reporting Station
Clear Clear  
Wind Chill: 82°   Ceiling: Unl
Heat Index: 82°   Visibility: 10mi
Dew Point: 45°   Wind: 8mph
Humidity: 28%   Direction: 240°WSW
Pressure: 29.59"   Gusts: NA
Location:  28.6563°N, 97.4287°W
Report Text: KBEA 232235Z AUTO 24007KT 10SM CLR 28/07 A2959 RMK AO2 T02750074
Loading
Personal Weather Stations






























Interactive Weather Map New forecast layout! Learn more

10-Day Weather Forecast

Advertisements
Track Severe Weather on mobile